Time;durP1;ratioP1;P1;durP2;ratioP2;P2;SDS_P1;SDS_P2;PMS_P1;PMS_P2;Temp;Humidity;BMP_temperature;BMP_pressure;BME280_temperature;BME280_humidity;BME280_pressure;Samples;Min_cycle;Max_cycle;Signal;HPM_P1;HPM_P2
2023/07/17 00:02:04;;;;;;;6.20;3.90;;;;;;;26.00;59.38;99037.75;221719;193;666186;-62
2023/07/17 00:07:08;;;;;;;6.60;4.30;;;;;;;25.95;59.45;99033.39;223546;185;136780;-60
2023/07/17 00:12:11;;;;;;;4.70;4.20;;;;;;;25.92;59.25;99029.42;223571;183;144996;-64
2023/07/17 00:17:15;;;;;;;4.90;4.00;;;;;;;25.90;59.25;99027.89;223591;183;140288;-61
2023/07/17 00:22:18;;;;;;;8.00;4.20;;;;;;;25.82;59.63;99027.76;223529;183;136968;-60
2023/07/17 00:27:22;;;;;;;6.40;4.70;;;;;;;25.74;59.81;99031.86;223532;183;143560;-65
2023/07/17 00:32:25;;;;;;;4.20;3.80;;;;;;;25.71;59.72;99035.29;223628;184;139066;-63
2023/07/17 00:37:28;;;;;;;6.30;3.80;;;;;;;25.68;60.03;99037.02;223679;183;136459;-59
2023/07/17 00:42:31;;;;;;;5.70;3.90;;;;;;;25.60;60.36;99035.79;223607;183;143259;-59
2023/07/17 00:47:36;;;;;;;7.40;3.90;;;;;;;25.56;60.13;99038.84;223627;183;138217;-66
2023/07/17 00:52:40;;;;;;;7.00;3.60;;;;;;;25.55;59.92;99032.08;223531;184;137001;-63
2023/07/17 00:57:43;;;;;;;6.90;3.80;;;;;;;25.51;60.61;99026.20;223538;184;145668;-64
2023/07/17 01:02:54;;;;;;;5.80;3.70;;;;;;;25.40;60.85;99026.61;223472;183;138419;-63
2023/07/17 01:08:02;;;;;;;5.80;3.60;;;;;;;25.28;61.29;99022.15;223487;184;136527;-67
2023/07/17 01:13:11;;;;;;;9.00;3.90;;;;;;;25.23;61.43;99019.83;223533;184;145218;-60
2023/07/17 01:18:14;;;;;;;4.90;3.90;;;;;;;25.20;61.52;99014.80;223490;180;138577;-65
2023/07/17 01:23:17;;;;;;;5.70;3.80;;;;;;;25.21;61.33;99017.58;223489;184;136741;-63
2023/07/17 01:28:20;;;;;;;9.50;4.00;;;;;;;25.12;61.71;99025.56;223563;184;145346;-63
2023/07/17 01:33:24;;;;;;;7.20;4.30;;;;;;;25.06;62.07;99030.32;223529;184;138837;-62
2023/07/17 01:38:27;;;;;;;5.00;4.30;;;;;;;25.03;62.36;99029.23;223566;184;139389;-62
2023/07/17 01:43:30;;;;;;;5.00;4.50;;;;;;;24.96;62.88;99024.07;223683;184;145088;-61
2023/07/17 01:48:34;;;;;;;7.60;4.60;;;;;;;24.90;63.03;99022.27;223641;184;140500;-64
2023/07/17 01:53:47;;;;;;;6.80;4.60;;;;;;;24.83;63.00;99033.73;223612;183;137190;-62
2023/07/17 01:58:50;;;;;;;5.80;4.40;;;;;;;24.76;63.41;99043.19;223689;182;145764;-65
2023/07/17 02:03:53;;;;;;;10.60;4.50;;;;;;;24.78;63.67;99050.70;223676;182;138366;-68
2023/07/17 02:08:56;;;;;;;5.80;4.60;;;;;;;24.80;63.66;99050.94;223704;182;137074;-63
2023/07/17 02:14:02;;;;;;;6.30;4.70;;;;;;;24.84;63.95;99055.05;223736;183;284545;-65
2023/07/17 02:19:05;;;;;;;;;;;;;;;24.78;63.99;99067.09;223769;182;140203;-64
2023/07/17 02:24:08;;;;;;;5.90;4.80;;;;;;;24.70;64.27;99077.16;223564;183;128950;-62
2023/07/17 02:29:11;;;;;;;8.00;5.10;;;;;;;24.68;64.44;99078.64;223675;182;147583;-63
2023/07/17 02:34:15;;;;;;;8.30;6.50;;;;;;;24.64;64.60;99080.05;223705;183;138288;-62
2023/07/17 02:39:18;;;;;;;5.80;5.10;;;;;;;24.61;64.86;99085.11;223733;182;139335;-59
2023/07/17 02:44:21;;;;;;;10.30;6.80;;;;;;;24.57;65.19;99085.41;223742;182;145308;-59
2023/07/17 02:49:24;;;;;;;11.90;8.80;;;;;;;24.57;65.51;99077.79;223582;182;139931;-60
2023/07/17 02:54:27;;;;;;;7.90;6.70;;;;;;;24.67;65.67;99076.07;223770;182;136762;-61
2023/07/17 02:59:31;;;;;;;7.60;6.30;;;;;;;24.76;65.38;99073.33;223672;182;145668;-64
2023/07/17 03:04:35;;;;;;;10.50;6.80;;;;;;;24.77;65.31;99081.71;223668;183;138168;-63
2023/07/17 03:09:38;;;;;;;8.70;6.50;;;;;;;24.74;65.30;99082.13;223757;182;137007;-63
2023/07/17 03:14:41;;;;;;;7.50;6.70;;;;;;;24.72;65.02;99071.60;223779;182;147976;-64
2023/07/17 03:19:44;;;;;;;14.20;8.10;;;;;;;24.69;65.59;99063.27;223750;182;139034;-62
2023/07/17 03:24:47;;;;;;;13.20;7.00;;;;;;;24.64;65.84;99068.27;223764;182;137477;-62
2023/07/17 03:29:53;;;;;;;11.60;4.90;;;;;;;24.55;65.87;99081.84;223729;182;145879;-62
2023/07/17 03:34:56;;;;;;;6.10;4.90;;;;;;;24.50;65.66;99085.14;223597;182;138837;-65
2023/07/17 03:40:00;;;;;;;8.30;5.00;;;;;;;24.49;65.34;99082.27;223671;182;137785;-58
2023/07/17 03:45:05;;;;;;;;;;;;;;;24.48;65.78;99076.16;223668;182;146642;-60
2023/07/17 03:50:10;;;;;;;11.90;5.30;;;;;;;24.44;66.02;99077.16;223680;183;138708;-62
2023/07/17 03:55:17;;;;;;;6.70;5.40;;;;;;;24.40;66.24;99074.63;223734;182;136848;-62
2023/07/17 04:00:21;;;;;;;12.00;5.40;;;;;;;24.39;66.60;99076.02;223700;182;145228;-60
2023/07/17 04:05:24;;;;;;;10.80;7.80;;;;;;;24.48;66.56;99082.38;223597;182;140870;-64
2023/07/17 04:10:28;;;;;;;13.10;8.60;;;;;;;24.68;66.47;99088.35;223645;182;137581;-63
2023/07/17 04:15:34;;;;;;;13.40;8.90;;;;;;;24.86;66.01;99092.28;223715;183;145338;-63
2023/07/17 04:20:42;;;;;;;13.60;8.60;;;;;;;25.00;65.84;99091.50;223633;182;138933;-63
2023/07/17 04:25:45;;;;;;;10.00;8.40;;;;;;;25.08;65.31;99094.51;223770;183;138652;-63
2023/07/17 04:30:48;;;;;;;14.50;8.90;;;;;;;25.10;64.97;99091.70;223746;182;145298;-61
2023/07/17 04:35:52;;;;;;;11.10;8.20;;;;;;;25.07;64.92;99073.00;223599;182;139075;-65
2023/07/17 04:40:56;;;;;;;9.80;8.40;;;;;;;25.04;64.99;99065.53;223572;182;137787;-64
2023/07/17 04:45:59;;;;;;;10.70;8.40;;;;;;;25.02;64.70;99063.29;223673;182;145670;-60
2023/07/17 04:51:02;;;;;;;12.20;8.00;;;;;;;25.01;64.89;99063.69;223796;182;139107;-60
2023/07/17 04:56:06;;;;;;;13.50;9.10;;;;;;;25.10;65.43;99055.96;223727;182;138486;-59
2023/07/17 05:01:10;;;;;;;12.40;8.90;;;;;;;25.25;65.65;99052.08;223779;183;145172;-61
2023/07/17 05:06:15;;;;;;;11.20;9.10;;;;;;;25.37;65.07;99067.20;223650;182;138181;-60
2023/07/17 05:11:19;;;;;;;13.90;7.10;;;;;;;25.46;64.68;99072.94;223692;183;136680;-63
2023/07/17 05:16:23;;;;;;;9.20;6.90;;;;;;;25.49;64.34;99068.23;223677;183;145284;-62
2023/07/17 05:21:27;;;;;;;8.80;6.80;;;;;;;25.53;64.37;99070.50;223748;182;138277;-62
2023/07/17 05:26:31;;;;;;;10.20;5.90;;;;;;;25.54;64.30;99073.45;223723;182;137382;-62
2023/07/17 05:31:35;;;;;;;14.00;5.80;;;;;;;25.51;64.33;99077.62;223728;182;145209;-61
2023/07/17 05:36:38;;;;;;;15.10;5.70;;;;;;;25.47;64.46;99081.20;223665;182;139988;-66
2023/07/17 05:41:42;;;;;;;13.00;5.30;;;;;;;25.46;64.44;99092.05;223510;183;137054;-64
2023/07/17 05:46:47;;;;;;;8.60;5.70;;;;;;;25.50;64.17;99097.35;223658;182;145478;-64
2023/07/17 05:51:51;;;;;;;15.20;5.80;;;;;;;25.56;64.45;99105.21;223586;182;138581;-61
2023/07/17 05:56:56;;;;;;;10.00;5.10;;;;;;;25.60;64.30;99104.51;223737;182;137096;-61
2023/07/17 06:01:59;;;;;;;12.40;4.90;;;;;;;25.61;64.45;99110.53;223529;182;148475;-66
2023/07/17 06:07:05;;;;;;;10.40;3.90;;;;;;;25.63;63.91;99137.05;223647;182;138531;-64
2023/07/17 06:12:09;;;;;;;17.30;5.40;;;;;;;25.47;63.56;99240.87;223673;183;137140;-64
2023/07/17 06:17:12;;;;;;;25.20;5.40;;;;;;;25.24;62.51;99252.69;223720;182;145623;-60
2023/07/17 06:22:15;;;;;;;16.60;4.10;;;;;;;25.12;60.67;99257.09;223659;182;138391;-61
2023/07/17 06:27:19;;;;;;;9.60;3.30;;;;;;;25.09;60.91;99262.54;223674;182;137106;-66
2023/07/17 06:32:22;;;;;;;8.80;3.00;;;;;;;25.03;62.07;99217.83;223694;182;144946;-64
2023/07/17 06:37:26;;;;;;;9.30;2.90;;;;;;;24.89;63.14;99236.80;223546;182;138955;-65
2023/07/17 06:42:30;;;;;;;8.90;2.30;;;;;;;24.77;64.00;99229.44;223741;182;137172;-64
2023/07/17 06:47:33;;;;;;;31.90;5.30;;;;;;;24.78;64.09;99230.95;223660;181;145592;-68
2023/07/17 06:52:41;;;;;;;6.50;2.50;;;;;;;24.71;64.19;99229.65;223633;182;138470;-67
2023/07/17 06:57:45;;;;;;;3.70;2.00;;;;;;;24.65;64.16;99226.55;223574;182;137802;-63
2023/07/17 07:02:48;;;;;;;3.40;1.70;;;;;;;24.73;64.24;99227.77;223707;182;145632;-65
2023/07/17 07:07:51;;;;;;;2.90;1.70;;;;;;;24.80;64.15;99229.52;223720;182;138954;-63
2023/07/17 07:12:54;;;;;;;4.90;2.30;;;;;;;24.67;63.01;99227.33;223806;182;137765;-62
2023/07/17 07:17:58;;;;;;;2.70;1.30;;;;;;;24.44;63.17;99219.08;223611;182;145404;-61
2023/07/17 08:02:06;;;;;;;2.80;1.60;;;;;;;24.89;62.64;99195.58;221640;193;666180;-63
2023/07/17 08:07:10;;;;;;;4.80;2.10;;;;;;;24.69;62.80;99208.51;223719;183;136466;-63
2023/07/17 08:12:14;;;;;;;7.80;2.10;;;;;;;24.51;63.02;99210.05;223659;183;143768;-64
2023/07/17 08:17:17;;;;;;;4.60;2.00;;;;;;;24.43;63.33;99212.23;223584;184;138310;-64
2023/07/17 08:22:21;;;;;;;9.70;1.90;;;;;;;24.47;63.48;99190.36;223689;183;136326;-64
2023/07/17 08:27:24;;;;;;;6.90;2.10;;;;;;;24.55;62.76;99181.60;223566;183;144306;-64
2023/07/17 08:32:27;;;;;;;8.90;2.80;;;;;;;24.60;62.65;99190.85;223673;183;138284;-65
2023/07/17 08:37:31;;;;;;;9.50;3.50;;;;;;;24.59;62.38;99200.92;223735;183;136290;-64
2023/07/17 08:42:34;;;;;;;6.40;3.20;;;;;;;24.42;62.63;99208.77;223721;183;143395;-63
2023/07/17 08:47:39;;;;;;;6.00;2.90;;;;;;;24.45;62.90;99204.08;223686;183;138327;-64
2023/07/17 08:52:44;;;;;;;10.60;3.80;;;;;;;24.50;63.11;99208.20;223559;183;136947;-64
2023/07/17 08:57:50;;;;;;;9.40;3.40;;;;;;;24.48;63.52;99211.55;223680;183;145782;-65
2023/07/17 09:02:54;;;;;;;8.70;3.30;;;;;;;24.59;63.45;99208.04;223581;183;138470;-65
2023/07/17 09:08:14;;;;;;;8.20;3.60;;;;;;;24.66;62.96;99211.89;223669;183;137366;-65
2023/07/17 09:13:23;;;;;;;9.70;3.50;;;;;;;24.69;62.87;99196.11;223654;183;145294;-68
2023/07/17 09:18:29;;;;;;;8.70;3.80;;;;;;;24.67;62.66;99193.52;223460;184;138673;-62
2023/07/17 09:23:40;;;;;;;13.60;3.60;;;;;;;24.64;63.31;99200.68;223630;183;137691;-65
2023/07/17 09:28:53;;;;;;;10.30;3.40;;;;;;;24.79;63.38;99206.21;223621;183;145731;-64
2023/07/17 09:33:58;;;;;;;7.80;2.80;;;;;;;24.83;63.12;99205.78;223619;184;139571;-63
2023/07/17 09:39:05;;;;;;;7.80;3.10;;;;;;;24.77;62.79;99208.27;223675;182;136337;-64
2023/07/17 09:44:08;;;;;;;4.50;2.30;;;;;;;24.73;63.39;99208.75;223639;183;145297;-63
2023/07/17 09:49:12;;;;;;;5.40;2.20;;;;;;;24.66;63.80;99192.64;223647;182;140171;-63
2023/07/17 09:54:17;;;;;;;6.40;2.30;;;;;;;24.67;63.86;99190.59;223629;183;137626;-63
2023/07/17 10:02:16;;;;;;;8.70;2.10;;;;;;;24.85;64.43;99178.39;221782;193;676448;-65
2023/07/17 10:07:20;;;;;;;8.20;2.00;;;;;;;24.99;63.77;99170.91;223693;183;136318;-63
2023/07/17 10:12:23;;;;;;;9.30;2.00;;;;;;;25.16;63.83;99161.58;223689;183;144406;-62
2023/07/17 10:17:30;;;;;;;9.10;1.90;;;;;;;25.30;63.24;99143.80;223584;183;138860;-63
2023/07/17 10:22:43;;;;;;;2.90;1.80;;;;;;;25.41;62.95;99133.19;223638;183;136450;-64
2023/07/17 10:27:52;;;;;;;2.80;1.60;;;;;;;25.53;62.72;99131.59;223643;183;144032;-63
2023/07/17 10:33:08;;;;;;;4.40;2.10;;;;;;;25.58;62.29;99132.23;223623;183;138574;-63
2023/07/17 10:38:13;;;;;;;10.80;2.80;;;;;;;25.65;62.45;99124.54;223705;183;136496;-62
2023/07/17 10:43:19;;;;;;;4.40;1.80;;;;;;;25.70;62.21;99126.83;223748;183;143742;-64
2023/07/17 10:48:26;;;;;;;3.70;1.60;;;;;;;25.70;62.00;99124.11;223766;182;138352;-62
2023/07/17 10:53:29;;;;;;;4.50;1.50;;;;;;;25.66;61.30;99125.15;223693;183;136574;-61
2023/07/17 10:58:33;;;;;;;6.70;1.80;;;;;;;25.60;60.81;99125.59;223730;182;145367;-61
2023/07/17 11:03:36;;;;;;;5.80;2.50;;;;;;;25.53;61.29;99125.77;223620;182;138362;-61
2023/07/17 11:08:40;;;;;;;3.40;1.80;;;;;;;25.46;61.50;99120.67;223743;183;136725;-62
2023/07/17 11:13:50;;;;;;;6.60;2.80;;;;;;;25.42;61.47;99121.77;223653;183;145216;-61
2023/07/17 12:02:02;;;;;;;8.50;2.40;;;;;;;25.46;63.70;99140.60;221220;193;689425;-64
2023/07/17 12:07:06;;;;;;;9.90;2.50;;;;;;;25.36;63.42;99151.40;223659;184;136093;-63
2023/07/17 12:12:09;;;;;;;8.40;3.80;;;;;;;25.27;63.13;99155.39;223638;184;143839;-64
2023/07/17 12:17:12;;;;;;;5.00;2.10;;;;;;;25.14;63.77;99138.19;223641;183;138241;-63
2023/07/17 12:22:16;;;;;;;6.70;2.30;;;;;;;25.04;64.17;99138.91;223607;183;137100;-64
2023/07/17 12:27:22;;;;;;;5.10;2.50;;;;;;;24.95;64.47;99127.14;223699;183;145077;-64
2023/07/17 12:32:29;;;;;;;4.10;2.30;;;;;;;24.85;64.48;99127.08;223620;183;138877;-64
2023/07/17 12:37:35;;;;;;;7.70;2.30;;;;;;;24.75;64.46;99147.10;223705;184;137130;-63
2023/07/17 12:42:39;;;;;;;5.10;2.40;;;;;;;24.59;64.63;99164.15;223567;183;144115;-63
2023/07/17 12:47:42;;;;;;;4.50;2.50;;;;;;;24.39;65.25;99172.75;223546;184;139331;-63
2023/07/17 12:52:47;;;;;;;4.60;2.60;;;;;;;24.23;65.63;99146.52;223497;183;137702;-63
2023/07/17 12:57:50;;;;;;;5.40;2.90;;;;;;;24.14;65.99;99141.70;223618;183;146582;-63
2023/07/17 13:02:54;;;;;;;4.40;2.90;;;;;;;23.97;66.75;99152.73;223604;183;138867;-64
2023/07/17 13:07:58;;;;;;;7.00;3.30;;;;;;;23.75;67.52;99165.55;223499;183;136786;-64
2023/07/17 13:13:01;;;;;;;7.90;3.60;;;;;;;23.55;68.16;99197.10;223466;184;148493;-63
2023/07/17 13:18:04;;;;;;;9.00;3.40;;;;;;;23.51;68.91;99252.10;223595;183;139753;-63
2023/07/17 13:23:07;;;;;;;6.60;4.00;;;;;;;23.48;69.44;99327.12;223510;183;137693;-64
2023/07/17 13:28:11;;;;;;;4.70;3.10;;;;;;;23.48;70.14;99366.45;223713;182;145305;-63
2023/07/17 13:33:14;;;;;;;6.80;3.30;;;;;;;23.43;70.56;99380.54;223588;182;138400;-63
2023/07/17 13:38:17;;;;;;;4.50;3.20;;;;;;;23.35;70.95;99380.30;223668;182;136909;-63
2023/07/17 13:43:20;;;;;;;4.60;3.10;;;;;;;23.31;71.04;99359.34;223687;182;144980;-62
2023/07/17 13:48:25;;;;;;;5.00;3.30;;;;;;;23.21;71.36;99338.83;223723;182;138271;-63
2023/07/17 13:53:30;;;;;;;5.10;3.00;;;;;;;23.18;71.60;99329.57;223647;182;140868;-65
2023/07/17 13:58:33;;;;;;;5.60;3.00;;;;;;;23.12;71.60;99312.45;223703;182;145289;-65
2023/07/17 14:03:37;;;;;;;6.70;3.30;;;;;;;23.06;71.82;99296.77;223541;182;138967;-64
2023/07/17 14:08:43;;;;;;;6.00;3.50;;;;;;;23.08;71.96;99266.54;223487;181;137865;-64
2023/07/17 14:13:46;;;;;;;9.40;3.80;;;;;;;22.94;71.96;99243.25;223654;182;145283;-65
2023/07/17 14:18:49;;;;;;;6.90;3.60;;;;;;;22.89;72.42;99240.58;223571;182;139397;-65
2023/07/17 14:23:53;;;;;;;9.50;4.40;;;;;;;22.80;72.75;99230.52;223579;182;136739;-65
2023/07/17 14:28:58;;;;;;;5.70;3.60;;;;;;;22.77;73.29;99183.25;223697;182;145785;-65
2023/07/17 14:34:11;;;;;;;;;;;;;;;22.82;73.98;99169.27;223742;182;139475;-64
2023/07/17 14:39:14;;;;;;;6.80;3.80;;;;;;;22.86;74.15;99164.17;223767;182;130546;-64
2023/07/17 14:44:18;;;;;;;7.10;3.90;;;;;;;22.88;74.70;99157.42;223611;182;145501;-65
2023/07/17 14:49:21;;;;;;;7.00;3.70;;;;;;;22.92;75.02;99162.08;223709;182;138386;-63
2023/07/17 14:54:24;;;;;;;6.90;3.90;;;;;;;23.04;75.34;99149.23;223648;181;138385;-63
2023/07/17 14:59:27;;;;;;;8.40;3.70;;;;;;;23.28;76.15;99130.67;223740;182;144906;-61
2023/07/17 15:04:31;;;;;;;8.70;4.00;;;;;;;23.65;75.16;99123.17;223686;182;138109;-62
2023/07/17 15:09:35;;;;;;;7.70;4.70;;;;;;;23.82;74.39;99130.52;223662;182;136743;-62
2023/07/17 15:14:38;;;;;;;7.50;3.60;;;;;;;23.97;74.42;99128.95;223663;182;145833;-62
2023/07/17 15:19:42;;;;;;;12.90;9.20;;;;;;;24.12;73.77;99127.52;223813;182;138899;-62
2023/07/17 15:24:45;;;;;;;13.20;10.00;;;;;;;24.23;73.15;99125.48;223660;181;137629;-62
2023/07/17 15:29:48;;;;;;;11.40;6.60;;;;;;;24.31;72.85;99114.73;223717;183;145477;-62
2023/07/17 15:34:52;;;;;;;8.40;5.30;;;;;;;24.46;72.22;99112.48;223773;182;138411;-62
2023/07/17 15:39:55;;;;;;;6.40;4.60;;;;;;;24.47;71.78;99106.05;223663;181;136747;-62
2023/07/17 15:45:02;;;;;;;6.00;3.90;;;;;;;24.50;71.64;99096.02;223754;182;145913;-62
2023/07/17 15:50:06;;;;;;;5.60;3.30;;;;;;;24.60;70.98;99097.09;223722;182;138472;-63
2023/07/17 15:55:09;;;;;;;3.50;2.80;;;;;;;24.58;70.35;99092.56;223702;182;137454;-65
2023/07/17 16:00:13;;;;;;;5.60;2.80;;;;;;;24.51;69.99;99095.23;223716;182;145270;-65
2023/07/17 16:05:18;;;;;;;7.30;2.90;;;;;;;24.51;69.64;99098.29;223734;182;138908;-66
2023/07/17 16:10:21;;;;;;;5.00;2.70;;;;;;;24.45;69.52;99092.70;223665;182;136683;-65
2023/07/17 16:15:24;;;;;;;3.30;2.70;;;;;;;24.33;69.96;99084.09;223643;183;145573;-63
2023/07/17 16:20:28;;;;;;;3.00;2.30;;;;;;;24.29;70.06;99075.63;223702;182;138890;-62
2023/07/17 16:25:31;;;;;;;3.70;2.40;;;;;;;24.34;70.37;99073.23;223734;182;137705;-62
2023/07/17 16:30:34;;;;;;;3.40;2.50;;;;;;;24.38;69.89;99070.41;223654;183;147668;-63
2023/07/17 16:35:38;;;;;;;4.10;2.10;;;;;;;24.35;69.20;99077.48;223656;182;138985;-63
2023/07/17 16:40:41;;;;;;;4.90;2.20;;;;;;;24.27;68.91;99074.45;223672;182;137029;-63
2023/07/17 16:45:44;;;;;;;3.40;2.60;;;;;;;24.30;69.09;99063.41;223582;182;145759;-63
2023/07/17 16:50:48;;;;;;;3.70;2.10;;;;;;;24.37;69.11;99063.62;223707;182;138450;-62
2023/07/17 16:55:51;;;;;;;3.50;2.00;;;;;;;24.36;68.26;99064.89;223786;182;136608;-61
2023/07/17 17:00:54;;;;;;;3.00;2.60;;;;;;;24.31;68.26;99052.71;223579;181;147086;-62
2023/07/17 17:05:58;;;;;;;2.40;2.20;;;;;;;24.26;67.98;99035.73;223696;182;138180;-61
2023/07/17 17:11:02;;;;;;;7.40;2.40;;;;;;;24.25;67.69;99043.36;223827;182;136689;-62
2023/07/17 17:16:05;;;;;;;4.10;2.30;;;;;;;24.20;68.01;99050.27;223711;182;146081;-61
2023/07/17 17:21:08;;;;;;;3.20;2.10;;;;;;;24.18;68.45;99050.22;223615;182;138965;-61
2023/07/17 17:26:12;;;;;;;4.20;2.30;;;;;;;24.18;68.32;99033.83;223791;182;138041;-62
2023/07/17 17:31:15;;;;;;;2.40;2.10;;;;;;;24.17;68.70;99038.73;223847;182;145478;-64
2023/07/17 17:36:18;;;;;;;3.20;2.00;;;;;;;24.07;69.10;99034.84;223637;182;138996;-63
2023/07/17 17:41:21;;;;;;;3.10;2.10;;;;;;;23.95;69.27;99023.50;223800;182;137875;-63
2023/07/17 17:46:25;;;;;;;4.70;2.30;;;;;;;23.85;69.49;99013.99;223802;182;145302;-63
2023/07/17 17:51:28;;;;;;;2.40;2.00;;;;;;;23.78;69.28;99000.31;223742;181;138938;-64
2023/07/17 17:56:31;;;;;;;6.00;2.30;;;;;;;23.76;69.62;98997.45;223705;183;137769;-63
2023/07/17 18:01:35;;;;;;;3.90;2.80;;;;;;;23.69;69.59;99001.63;223748;182;145383;-63
2023/07/17 18:06:38;;;;;;;4.80;2.60;;;;;;;23.60;69.91;99011.61;223607;182;138653;-65
2023/07/17 18:11:41;;;;;;;6.20;3.10;;;;;;;23.50;70.38;99006.34;223788;182;136504;-63
2023/07/17 18:16:44;;;;;;;5.70;2.90;;;;;;;23.36;70.90;98993.29;223728;182;145631;-64
2023/07/17 18:21:49;;;;;;;7.50;2.80;;;;;;;23.28;71.40;98979.75;223711;182;138841;-63
2023/07/17 18:26:52;;;;;;;6.40;3.00;;;;;;;23.22;71.77;98985.83;223659;182;137011;-63
2023/07/17 18:31:56;;;;;;;6.30;3.70;;;;;;;23.12;72.39;98994.39;223660;182;147112;-63
2023/07/17 18:37:00;;;;;;;8.30;3.80;;;;;;;23.10;72.80;98989.23;223750;182;138878;-62
2023/07/17 18:42:03;;;;;;;8.50;3.60;;;;;;;23.06;72.99;98974.33;223681;181;137174;-62
2023/07/17 18:47:07;;;;;;;4.00;3.10;;;;;;;23.00;73.74;98967.44;223529;181;145059;-62
2023/07/17 18:52:10;;;;;;;7.70;3.40;;;;;;;23.03;73.50;98965.55;223622;182;138582;-62
2023/07/17 18:57:13;;;;;;;6.30;3.70;;;;;;;22.98;73.52;98962.08;223679;182;137314;-63
2023/07/17 19:02:16;;;;;;;7.80;3.70;;;;;;;22.99;73.62;98956.88;223792;182;146316;-63
2023/07/17 19:07:19;;;;;;;6.60;3.50;;;;;;;23.02;73.40;98957.34;223732;182;138259;-63
2023/07/17 19:12:23;;;;;;;4.60;3.20;;;;;;;23.00;73.68;98953.66;223810;182;137824;-63
2023/07/17 19:17:26;;;;;;;3.80;3.20;;;;;;;22.96;73.51;98959.67;223732;182;146735;-63
2023/07/17 19:22:29;;;;;;;6.70;3.30;;;;;;;23.10;73.70;98960.92;223684;182;138357;-65
2023/07/17 19:27:33;;;;;;;4.40;3.20;;;;;;;23.35;73.09;98963.17;223801;182;137437;-65
2023/07/17 19:32:42;;;;;;;5.10;3.80;;;;;;;23.49;72.19;98959.28;223750;182;145387;-65
2023/07/17 20:02:04;;;;;;;7.00;3.60;;;;;;;22.68;73.45;98996.50;222144;190;665684;-62
2023/07/17 20:07:07;;;;;;;8.70;3.60;;;;;;;22.59;73.75;99006.91;223675;183;137459;-63
2023/07/17 20:12:11;;;;;;;6.60;3.90;;;;;;;22.59;73.71;99016.71;223656;183;144373;-62
2023/07/17 20:17:14;;;;;;;8.60;4.00;;;;;;;22.54;73.86;99020.85;223622;183;139849;-63
2023/07/17 20:22:18;;;;;;;7.60;4.00;;;;;;;22.46;73.95;99024.45;223562;183;136976;-62
2023/07/17 20:27:21;;;;;;;9.30;4.20;;;;;;;22.36;74.28;99024.55;223680;182;143570;-63
2023/07/17 20:32:25;;;;;;;12.10;4.30;;;;;;;22.28;74.56;99018.05;223712;183;138883;-62
2023/07/17 20:37:28;;;;;;;10.10;3.90;;;;;;;22.21;74.68;99017.13;223701;184;137155;-63
2023/07/17 20:42:48;;;;;;;8.40;4.10;;;;;;;22.20;74.81;99020.48;223752;181;143794;-62
2023/07/17 20:47:51;;;;;;;6.90;4.00;;;;;;;22.18;75.07;99018.14;223761;181;138446;-63
2023/07/17 20:52:56;;;;;;;6.50;4.10;;;;;;;22.20;75.17;99015.30;223706;181;139516;-63
2023/07/17 20:57:59;;;;;;;7.80;4.60;;;;;;;22.17;75.14;99016.60;223778;181;147556;-62
2023/07/17 21:03:03;;;;;;;7.20;4.60;;;;;;;22.15;75.49;99015.80;223754;182;141027;-63
2023/07/17 21:08:07;;;;;;;10.80;4.20;;;;;;;22.17;75.32;99018.27;223864;182;138145;-63
2023/07/17 21:13:10;;;;;;;6.20;3.80;;;;;;;22.23;75.34;99025.63;223314;182;145643;-63
2023/07/17 21:18:14;;;;;;;9.30;4.70;;;;;;;22.17;75.27;99030.79;223731;182;138469;-63
2023/07/17 21:23:17;;;;;;;7.40;4.20;;;;;;;22.13;75.31;99031.56;223780;182;136512;-62
2023/07/17 21:28:21;;;;;;;6.10;3.90;;;;;;;22.10;75.34;99036.81;223796;182;145780;-63
2023/07/17 21:33:24;;;;;;;5.10;4.10;;;;;;;22.15;75.24;99035.11;223688;181;138335;-62
2023/07/17 21:38:27;;;;;;;6.90;4.00;;;;;;;22.18;75.06;99033.15;223787;182;136513;-63
2023/07/17 21:43:30;;;;;;;7.40;4.40;;;;;;;22.15;74.96;99034.76;223917;182;145852;-64
2023/07/17 21:48:34;;;;;;;8.00;4.50;;;;;;;22.07;75.15;99035.64;223759;181;140318;-62
2023/07/17 21:53:37;;;;;;;9.00;4.20;;;;;;;22.06;75.38;99038.30;223715;182;137321;-63
2023/07/17 21:58:40;;;;;;;7.10;4.40;;;;;;;22.06;75.25;99036.72;223784;182;145384;-63
2023/07/17 22:03:43;;;;;;;9.00;4.60;;;;;;;22.04;75.15;99039.96;223510;182;138966;-63
2023/07/17 22:08:47;;;;;;;8.70;5.10;;;;;;;21.98;75.14;99045.65;223810;181;137089;-63
2023/07/17 22:13:50;;;;;;;11.30;4.50;;;;;;;21.90;75.13;99053.03;223767;182;145039;-62
2023/07/17 22:18:54;;;;;;;6.80;4.30;;;;;;;21.85;75.29;99051.80;223681;182;139142;-63
2023/07/17 22:23:57;;;;;;;10.50;4.50;;;;;;;21.86;75.13;99058.98;223748;182;137457;-63
2023/07/17 22:29:00;;;;;;;8.60;4.50;;;;;;;21.83;75.19;99056.53;223618;181;145752;-63
2023/07/17 22:34:03;;;;;;;6.80;4.40;;;;;;;21.79;75.15;99054.56;223594;181;139990;-62
2023/07/17 22:39:07;;;;;;;5.80;4.20;;;;;;;21.74;75.26;99053.13;223599;182;136935;-63
2023/07/17 22:44:10;;;;;;;7.70;4.50;;;;;;;21.70;75.27;99056.81;223677;181;145202;-61
2023/07/17 22:49:14;;;;;;;8.80;4.50;;;;;;;21.67;75.43;99056.09;223708;182;138387;-63
2023/07/17 22:54:17;;;;;;;9.90;4.90;;;;;;;21.68;75.51;99059.05;223712;181;138960;-62
2023/07/17 22:59:21;;;;;;;8.40;4.60;;;;;;;21.64;75.43;99058.96;223612;181;145334;-63
2023/07/17 23:04:24;;;;;;;9.90;4.90;;;;;;;21.56;75.77;99062.13;223627;181;140372;-63
2023/07/17 23:09:28;;;;;;;6.80;4.20;;;;;;;21.52;75.95;99054.42;223650;181;137142;-62
2023/07/17 23:14:32;;;;;;;10.20;4.90;;;;;;;21.53;76.35;99056.73;223764;181;145170;-63
2023/07/17 23:19:38;;;;;;;11.30;5.10;;;;;;;21.57;76.26;99054.82;223818;182;138520;-62
2023/07/17 23:24:42;;;;;;;9.10;5.30;;;;;;;21.62;76.15;99058.45;223691;181;136771;-63
2023/07/17 23:29:45;;;;;;;9.60;5.10;;;;;;;21.57;76.11;99057.52;223721;183;145315;-63
2023/07/17 23:34:48;;;;;;;8.30;5.50;;;;;;;21.51;76.20;99054.77;223726;182;138627;-63
2023/07/17 23:39:51;;;;;;;9.00;5.50;;;;;;;21.47;76.83;99056.11;223738;182;137456;-63
2023/07/17 23:44:56;;;;;;;12.30;5.50;;;;;;;21.47;76.88;99062.73;223717;182;145068;-63
2023/07/17 23:49:59;;;;;;;10.00;5.50;;;;;;;21.50;76.91;99058.63;223721;182;139216;-63
2023/07/17 23:55:03;;;;;;;8.00;6.20;;;;;;;21.55;76.85;99051.67;223612;182;137964;-63
